sensor_id;sensor_type;location;lat;lon;timestamp;temperature;humidity
21331;DHT22;10824;51.632;4.950;2023-06-26T00:00:31;25.10;1.00
21331;DHT22;10824;51.632;4.950;2023-06-26T00:02:59;25.00;1.00
21331;DHT22;10824;51.632;4.950;2023-06-26T00:05:27;24.90;1.00
21331;DHT22;10824;51.632;4.950;2023-06-26T00:07:54;24.90;1.00
21331;DHT22;10824;51.632;4.950;2023-06-26T00:10:22;24.80;1.00
21331;DHT22;10824;51.632;4.950;2023-06-26T00:12:49;24.60;1.00
21331;DHT22;10824;51.632;4.950;2023-06-26T00:15:16;24.50;1.00
21331;DHT22;10824;51.632;4.950;2023-06-26T00:17:43;24.60;1.00
21331;DHT22;10824;51.632;4.950;2023-06-26T00:20:12;24.70;1.00
21331;DHT22;10824;51.632;4.950;2023-06-26T00:22:40;24.40;1.00
21331;DHT22;10824;51.632;4.950;2023-06-26T00:25:10;24.20;1.00
21331;DHT22;10824;51.632;4.950;2023-06-26T00:27:37;24.20;1.00
21331;DHT22;10824;51.632;4.950;2023-06-26T00:30:04;24.30;1.00
21331;DHT22;10824;51.632;4.950;2023-06-26T00:32:33;24.00;1.00
21331;DHT22;10824;51.632;4.950;2023-06-26T00:35:02;23.80;1.00
21331;DHT22;10824;51.632;4.950;2023-06-26T00:37:29;23.80;1.00
21331;DHT22;10824;51.632;4.950;2023-06-26T00:39:56;23.80;1.00
21331;DHT22;10824;51.632;4.950;2023-06-26T00:42:25;23.70;1.00
21331;DHT22;10824;51.632;4.950;2023-06-26T00:44:52;23.70;1.00
21331;DHT22;10824;51.632;4.950;2023-06-26T00:47:19;23.80;1.00
21331;DHT22;10824;51.632;4.950;2023-06-26T00:49:48;23.70;1.00
21331;DHT22;10824;51.632;4.950;2023-06-26T00:52:16;23.50;1.00
21331;DHT22;10824;51.632;4.950;2023-06-26T00:54:44;23.60;1.00
21331;DHT22;10824;51.632;4.950;2023-06-26T00:57:12;23.60;1.00
21331;DHT22;10824;51.632;4.950;2023-06-26T00:59:39;23.40;1.00
21331;DHT22;10824;51.632;4.950;2023-06-26T01:02:07;23.30;1.00
21331;DHT22;10824;51.632;4.950;2023-06-26T01:04:35;23.40;1.00
21331;DHT22;10824;51.632;4.950;2023-06-26T01:07:05;23.40;1.00
21331;DHT22;10824;51.632;4.950;2023-06-26T01:09:34;23.40;1.00
21331;DHT22;10824;51.632;4.950;2023-06-26T01:12:04;23.20;1.00
21331;DHT22;10824;51.632;4.950;2023-06-26T01:14:31;23.20;1.00
21331;DHT22;10824;51.632;4.950;2023-06-26T01:17:01;23.10;1.00
21331;DHT22;10824;51.632;4.950;2023-06-26T01:19:30;23.20;1.00
21331;DHT22;10824;51.632;4.950;2023-06-26T01:22:41;22.90;1.00
21331;DHT22;10824;51.632;4.950;2023-06-26T01:28:22;23.00;1.00
21331;DHT22;10824;51.632;4.950;2023-06-26T01:30:51;22.90;1.00
21331;DHT22;10824;51.632;4.950;2023-06-26T01:33:18;22.90;1.00
21331;DHT22;10824;51.632;4.950;2023-06-26T01:35:47;22.80;1.00
21331;DHT22;10824;51.632;4.950;2023-06-26T01:38:19;22.80;1.00
21331;DHT22;10824;51.632;4.950;2023-06-26T01:40:47;22.60;1.00
21331;DHT22;10824;51.632;4.950;2023-06-26T01:43:27;22.60;1.00
21331;DHT22;10824;51.632;4.950;2023-06-26T01:46:01;22.60;1.00
21331;DHT22;10824;51.632;4.950;2023-06-26T01:48:40;22.60;1.00
21331;DHT22;10824;51.632;4.950;2023-06-26T01:51:14;22.30;1.00
21331;DHT22;10824;51.632;4.950;2023-06-26T01:53:46;22.50;1.00
21331;DHT22;10824;51.632;4.950;2023-06-26T01:56:18;22.20;1.00
21331;DHT22;10824;51.632;4.950;2023-06-26T01:58:47;22.10;1.00
21331;DHT22;10824;51.632;4.950;2023-06-26T02:01:15;22.20;1.00
21331;DHT22;10824;51.632;4.950;2023-06-26T02:03:44;22.30;1.00
21331;DHT22;10824;51.632;4.950;2023-06-26T02:06:11;22.20;1.00
21331;DHT22;10824;51.632;4.950;2023-06-26T02:08:39;22.10;1.00
21331;DHT22;10824;51.632;4.950;2023-06-26T02:11:06;22.30;1.00
21331;DHT22;10824;51.632;4.950;2023-06-26T02:13:35;22.30;1.00
21331;DHT22;10824;51.632;4.950;2023-06-26T02:16:02;22.30;1.00
21331;DHT22;10824;51.632;4.950;2023-06-26T02:18:29;22.40;1.00
21331;DHT22;10824;51.632;4.950;2023-06-26T02:20:57;22.20;1.00
21331;DHT22;10824;51.632;4.950;2023-06-26T02:23:25;22.30;1.00
21331;DHT22;10824;51.632;4.950;2023-06-26T02:25:52;22.10;12.80
21331;DHT22;10824;51.632;4.950;2023-06-26T02:28:19;22.20;28.40
21331;DHT22;10824;51.632;4.950;2023-06-26T02:30:46;22.20;30.50
21331;DHT22;10824;51.632;4.950;2023-06-26T02:33:14;22.30;27.60
21331;DHT22;10824;51.632;4.950;2023-06-26T02:35:41;22.30;40.40
21331;DHT22;10824;51.632;4.950;2023-06-26T02:42:10;22.10;99.90
21331;DHT22;10824;51.632;4.950;2023-06-26T02:44:37;22.00;99.90
21331;DHT22;10824;51.632;4.950;2023-06-26T02:47:06;21.90;99.90
21331;DHT22;10824;51.632;4.950;2023-06-26T02:49:36;21.70;99.90
21331;DHT22;10824;51.632;4.950;2023-06-26T02:52:03;21.80;99.90
21331;DHT22;10824;51.632;4.950;2023-06-26T02:54:30;21.70;99.90
21331;DHT22;10824;51.632;4.950;2023-06-26T02:57:02;21.80;99.90
21331;DHT22;10824;51.632;4.950;2023-06-26T02:59:32;21.60;1.00
21331;DHT22;10824;51.632;4.950;2023-06-26T03:01:59;21.60;1.00
21331;DHT22;10824;51.632;4.950;2023-06-26T03:04:31;21.70;1.00
21331;DHT22;10824;51.632;4.950;2023-06-26T03:07:00;21.70;1.00
21331;DHT22;10824;51.632;4.950;2023-06-26T03:09:28;21.60;1.00
21331;DHT22;10824;51.632;4.950;2023-06-26T03:11:55;21.50;1.00
21331;DHT22;10824;51.632;4.950;2023-06-26T03:14:23;21.50;1.00
21331;DHT22;10824;51.632;4.950;2023-06-26T03:16:51;21.20;2.90
21331;DHT22;10824;51.632;4.950;2023-06-26T03:19:21;21.40;99.90
21331;DHT22;10824;51.632;4.950;2023-06-26T03:22:08;21.30;99.90
21331;DHT22;10824;51.632;4.950;2023-06-26T03:24:35;21.30;99.90
21331;DHT22;10824;51.632;4.950;2023-06-26T03:27:03;21.30;99.90
21331;DHT22;10824;51.632;4.950;2023-06-26T03:29:31;21.20;99.90
21331;DHT22;10824;51.632;4.950;2023-06-26T03:31:59;21.10;99.90
21331;DHT22;10824;51.632;4.950;2023-06-26T03:34:26;21.20;99.90
21331;DHT22;10824;51.632;4.950;2023-06-26T03:36:54;21.30;99.90
21331;DHT22;10824;51.632;4.950;2023-06-26T03:39:22;21.30;99.90
21331;DHT22;10824;51.632;4.950;2023-06-26T03:41:49;21.30;99.90
21331;DHT22;10824;51.632;4.950;2023-06-26T03:44:16;21.40;99.90
21331;DHT22;10824;51.632;4.950;2023-06-26T03:46:47;21.30;99.90
21331;DHT22;10824;51.632;4.950;2023-06-26T03:49:14;21.30;99.90
21331;DHT22;10824;51.632;4.950;2023-06-26T03:51:41;21.10;99.90
21331;DHT22;10824;51.632;4.950;2023-06-26T03:54:08;21.00;99.90
21331;DHT22;10824;51.632;4.950;2023-06-26T03:56:35;20.90;99.90
21331;DHT22;10824;51.632;4.950;2023-06-26T03:59:05;21.00;99.90
21331;DHT22;10824;51.632;4.950;2023-06-26T04:01:32;20.90;99.90
21331;DHT22;10824;51.632;4.950;2023-06-26T04:04:00;20.90;99.90
21331;DHT22;10824;51.632;4.950;2023-06-26T04:06:27;20.80;99.90
21331;DHT22;10824;51.632;4.950;2023-06-26T04:08:54;20.80;99.90
21331;DHT22;10824;51.632;4.950;2023-06-26T04:11:22;20.60;99.90
21331;DHT22;10824;51.632;4.950;2023-06-26T04:13:49;20.60;99.90
21331;DHT22;10824;51.632;4.950;2023-06-26T04:16:16;20.70;99.90
21331;DHT22;10824;51.632;4.950;2023-06-26T04:18:43;20.60;99.90
21331;DHT22;10824;51.632;4.950;2023-06-26T04:21:12;20.50;99.90
21331;DHT22;10824;51.632;4.950;2023-06-26T04:23:40;20.70;99.90
21331;DHT22;10824;51.632;4.950;2023-06-26T04:26:09;20.70;99.90
21331;DHT22;10824;51.632;4.950;2023-06-26T04:28:40;20.60;99.90
21331;DHT22;10824;51.632;4.950;2023-06-26T04:31:08;20.60;99.90
21331;DHT22;10824;51.632;4.950;2023-06-26T04:33:36;20.70;99.90
21331;DHT22;10824;51.632;4.950;2023-06-26T04:36:06;20.50;99.90
21331;DHT22;10824;51.632;4.950;2023-06-26T04:38:34;20.70;99.90
21331;DHT22;10824;51.632;4.950;2023-06-26T04:41:01;20.70;99.90
21331;DHT22;10824;51.632;4.950;2023-06-26T04:43:29;20.60;99.90
21331;DHT22;10824;51.632;4.950;2023-06-26T04:45:56;20.70;99.90
21331;DHT22;10824;51.632;4.950;2023-06-26T04:48:24;20.70;99.90
21331;DHT22;10824;51.632;4.950;2023-06-26T04:50:51;20.80;99.90
21331;DHT22;10824;51.632;4.950;2023-06-26T04:53:21;20.60;99.90
21331;DHT22;10824;51.632;4.950;2023-06-26T04:55:53;20.50;99.90
21331;DHT22;10824;51.632;4.950;2023-06-26T04:58:20;20.50;99.90
21331;DHT22;10824;51.632;4.950;2023-06-26T05:00:50;20.40;99.90
21331;DHT22;10824;51.632;4.950;2023-06-26T05:03:18;20.40;99.90
21331;DHT22;10824;51.632;4.950;2023-06-26T05:05:46;20.40;99.90
21331;DHT22;10824;51.632;4.950;2023-06-26T05:08:18;20.50;99.90
21331;DHT22;10824;51.632;4.950;2023-06-26T05:10:45;20.50;99.90
21331;DHT22;10824;51.632;4.950;2023-06-26T05:13:13;20.60;99.90
21331;DHT22;10824;51.632;4.950;2023-06-26T05:15:45;20.60;99.90
21331;DHT22;10824;51.632;4.950;2023-06-26T05:18:12;20.50;99.90
21331;DHT22;10824;51.632;4.950;2023-06-26T05:20:40;20.60;57.70
21331;DHT22;10824;51.632;4.950;2023-06-26T05:23:11;20.70;6.00
21331;DHT22;10824;51.632;4.950;2023-06-26T05:25:38;20.70;1.00
21331;DHT22;10824;51.632;4.950;2023-06-26T05:28:07;20.80;1.00
21331;DHT22;10824;51.632;4.950;2023-06-26T05:30:37;20.70;1.00
21331;DHT22;10824;51.632;4.950;2023-06-26T05:33:05;20.70;1.00
21331;DHT22;10824;51.632;4.950;2023-06-26T05:35:34;20.50;1.00
21331;DHT22;10824;51.632;4.950;2023-06-26T05:38:02;20.70;1.00
21331;DHT22;10824;51.632;4.950;2023-06-26T05:40:30;20.80;1.00
21331;DHT22;10824;51.632;4.950;2023-06-26T05:42:57;20.70;1.00
21331;DHT22;10824;51.632;4.950;2023-06-26T05:45:25;20.90;1.00
21331;DHT22;10824;51.632;4.950;2023-06-26T05:47:53;21.00;1.00
21331;DHT22;10824;51.632;4.950;2023-06-26T05:50:23;21.10;1.00
21331;DHT22;10824;51.632;4.950;2023-06-26T05:52:51;21.40;1.00
21331;DHT22;10824;51.632;4.950;2023-06-26T05:55:19;21.40;1.00
21331;DHT22;10824;51.632;4.950;2023-06-26T05:57:46;21.40;1.00
21331;DHT22;10824;51.632;4.950;2023-06-26T06:00:14;21.20;1.00
21331;DHT22;10824;51.632;4.950;2023-06-26T06:02:42;21.10;1.00
21331;DHT22;10824;51.632;4.950;2023-06-26T06:05:10;21.00;1.00
21331;DHT22;10824;51.632;4.950;2023-06-26T06:07:37;21.20;1.00
21331;DHT22;10824;51.632;4.950;2023-06-26T06:10:05;21.40;1.00
21331;DHT22;10824;51.632;4.950;2023-06-26T06:12:32;21.40;1.00
21331;DHT22;10824;51.632;4.950;2023-06-26T06:14:59;21.40;1.00
21331;DHT22;10824;51.632;4.950;2023-06-26T06:17:26;21.40;1.00
21331;DHT22;10824;51.632;4.950;2023-06-26T06:19:53;21.50;1.00
21331;DHT22;10824;51.632;4.950;2023-06-26T06:22:20;21.50;1.00
21331;DHT22;10824;51.632;4.950;2023-06-26T06:24:51;21.70;1.00
21331;DHT22;10824;51.632;4.950;2023-06-26T06:27:18;21.50;1.00
21331;DHT22;10824;51.632;4.950;2023-06-26T06:29:45;21.70;1.00
21331;DHT22;10824;51.632;4.950;2023-06-26T06:32:13;21.80;1.00
21331;DHT22;10824;51.632;4.950;2023-06-26T06:34:40;21.90;1.00
21331;DHT22;10824;51.632;4.950;2023-06-26T06:37:07;21.50;99.90
21331;DHT22;10824;51.632;4.950;2023-06-26T06:39:37;21.40;99.90
21331;DHT22;10824;51.632;4.950;2023-06-26T06:42:05;21.20;99.90
21331;DHT22;10824;51.632;4.950;2023-06-26T06:44:32;21.20;99.90
21331;DHT22;10824;51.632;4.950;2023-06-26T06:47:03;21.40;99.90
21331;DHT22;10824;51.632;4.950;2023-06-26T06:49:30;21.40;99.90
21331;DHT22;10824;51.632;4.950;2023-06-26T06:51:58;21.40;99.90
21331;DHT22;10824;51.632;4.950;2023-06-26T06:54:26;21.50;99.90
21331;DHT22;10824;51.632;4.950;2023-06-26T06:56:54;21.60;99.90
21331;DHT22;10824;51.632;4.950;2023-06-26T06:59:21;21.50;99.90
21331;DHT22;10824;51.632;4.950;2023-06-26T07:01:49;21.70;99.90
21331;DHT22;10824;51.632;4.950;2023-06-26T07:04:17;21.70;99.90
21331;DHT22;10824;51.632;4.950;2023-06-26T07:06:45;21.60;99.90
21331;DHT22;10824;51.632;4.950;2023-06-26T07:09:13;21.50;99.90
21331;DHT22;10824;51.632;4.950;2023-06-26T07:11:41;21.70;99.90
21331;DHT22;10824;51.632;4.950;2023-06-26T07:14:10;21.70;99.90
21331;DHT22;10824;51.632;4.950;2023-06-26T07:16:37;21.70;99.90
21331;DHT22;10824;51.632;4.950;2023-06-26T07:19:07;21.90;99.90
21331;DHT22;10824;51.632;4.950;2023-06-26T07:21:34;21.90;99.90
21331;DHT22;10824;51.632;4.950;2023-06-26T07:24:02;22.00;99.90
21331;DHT22;10824;51.632;4.950;2023-06-26T07:26:29;21.90;99.90
21331;DHT22;10824;51.632;4.950;2023-06-26T07:29:10;21.80;99.90
21331;DHT22;10824;51.632;4.950;2023-06-26T07:31:38;21.90;99.90
21331;DHT22;10824;51.632;4.950;2023-06-26T07:34:06;21.70;89.60
21331;DHT22;10824;51.632;4.950;2023-06-26T07:36:33;21.70;90.90
21331;DHT22;10824;51.632;4.950;2023-06-26T07:39:00;21.90;87.80
21331;DHT22;10824;51.632;4.950;2023-06-26T07:41:28;22.00;61.30
21331;DHT22;10824;51.632;4.950;2023-06-26T07:43:58;22.10;59.40
21331;DHT22;10824;51.632;4.950;2023-06-26T07:46:25;21.90;52.20
21331;DHT22;10824;51.632;4.950;2023-06-26T07:48:54;21.70;61.40
21331;DHT22;10824;51.632;4.950;2023-06-26T07:51:21;21.80;67.40
21331;DHT22;10824;51.632;4.950;2023-06-26T07:53:48;21.60;58.60
21331;DHT22;10824;51.632;4.950;2023-06-26T07:56:16;21.70;59.30
21331;DHT22;10824;51.632;4.950;2023-06-26T07:58:45;21.70;56.00
21331;DHT22;10824;51.632;4.950;2023-06-26T08:01:12;21.80;53.30
21331;DHT22;10824;51.632;4.950;2023-06-26T08:03:39;21.80;51.30
21331;DHT22;10824;51.632;4.950;2023-06-26T08:06:07;22.00;50.30
21331;DHT22;10824;51.632;4.950;2023-06-26T08:08:38;22.30;43.30
21331;DHT22;10824;51.632;4.950;2023-06-26T08:11:06;22.00;46.20
21331;DHT22;10824;51.632;4.950;2023-06-26T08:13:34;21.90;41.10
21331;DHT22;10824;51.632;4.950;2023-06-26T08:16:01;21.80;35.00
21331;DHT22;10824;51.632;4.950;2023-06-26T08:18:28;21.70;30.40
21331;DHT22;10824;51.632;4.950;2023-06-26T08:20:55;21.80;22.10
21331;DHT22;10824;51.632;4.950;2023-06-26T08:23:22;22.00;17.70
21331;DHT22;10824;51.632;4.950;2023-06-26T08:25:52;22.00;13.50
21331;DHT22;10824;51.632;4.950;2023-06-26T08:28:19;21.80;15.80
21331;DHT22;10824;51.632;4.950;2023-06-26T08:30:46;22.20;1.00
21331;DHT22;10824;51.632;4.950;2023-06-26T08:33:14;22.40;1.00
21331;DHT22;10824;51.632;4.950;2023-06-26T08:35:41;22.30;1.00
21331;DHT22;10824;51.632;4.950;2023-06-26T08:38:10;22.50;1.00
21331;DHT22;10824;51.632;4.950;2023-06-26T08:40:37;22.50;1.00
21331;DHT22;10824;51.632;4.950;2023-06-26T08:43:05;22.20;1.00
21331;DHT22;10824;51.632;4.950;2023-06-26T08:45:32;22.30;1.00
21331;DHT22;10824;51.632;4.950;2023-06-26T08:48:00;22.60;1.00
21331;DHT22;10824;51.632;4.950;2023-06-26T08:50:30;22.40;1.00
21331;DHT22;10824;51.632;4.950;2023-06-26T08:53:09;22.40;1.00
21331;DHT22;10824;51.632;4.950;2023-06-26T08:55:41;22.10;1.00
21331;DHT22;10824;51.632;4.950;2023-06-26T08:58:10;22.40;1.00
21331;DHT22;10824;51.632;4.950;2023-06-26T09:00:39;22.80;1.00
21331;DHT22;10824;51.632;4.950;2023-06-26T09:03:10;22.70;1.00
21331;DHT22;10824;51.632;4.950;2023-06-26T09:05:37;22.70;1.00
21331;DHT22;10824;51.632;4.950;2023-06-26T09:08:04;22.50;1.00
21331;DHT22;10824;51.632;4.950;2023-06-26T09:10:32;22.60;1.00
21331;DHT22;10824;51.632;4.950;2023-06-26T09:13:02;22.50;1.00
21331;DHT22;10824;51.632;4.950;2023-06-26T09:15:44;22.80;1.00
21331;DHT22;10824;51.632;4.950;2023-06-26T09:18:12;22.70;1.00
21331;DHT22;10824;51.632;4.950;2023-06-26T09:20:39;22.40;1.00
21331;DHT22;10824;51.632;4.950;2023-06-26T09:23:08;22.60;1.00
21331;DHT22;10824;51.632;4.950;2023-06-26T09:25:39;22.90;1.00
21331;DHT22;10824;51.632;4.950;2023-06-26T09:28:09;22.60;1.00
21331;DHT22;10824;51.632;4.950;2023-06-26T09:30:36;22.70;1.00
21331;DHT22;10824;51.632;4.950;2023-06-26T09:33:15;22.60;1.00
21331;DHT22;10824;51.632;4.950;2023-06-26T09:35:46;22.80;1.00
21331;DHT22;10824;51.632;4.950;2023-06-26T09:38:13;22.80;1.00
21331;DHT22;10824;51.632;4.950;2023-06-26T09:40:43;22.70;1.00
21331;DHT22;10824;51.632;4.950;2023-06-26T09:43:13;22.80;1.00
21331;DHT22;10824;51.632;4.950;2023-06-26T09:45:41;23.30;1.00
21331;DHT22;10824;51.632;4.950;2023-06-26T09:48:08;23.20;1.00
21331;DHT22;10824;51.632;4.950;2023-06-26T09:50:41;23.00;1.00
21331;DHT22;10824;51.632;4.950;2023-06-26T09:53:28;22.70;1.00
21331;DHT22;10824;51.632;4.950;2023-06-26T09:55:56;23.10;1.00
21331;DHT22;10824;51.632;4.950;2023-06-26T09:58:27;23.10;1.00
21331;DHT22;10824;51.632;4.950;2023-06-26T10:00:54;23.40;1.00
21331;DHT22;10824;51.632;4.950;2023-06-26T10:03:22;23.60;1.00
21331;DHT22;10824;51.632;4.950;2023-06-26T10:05:50;23.20;1.00
21331;DHT22;10824;51.632;4.950;2023-06-26T10:08:19;23.10;1.00
21331;DHT22;10824;51.632;4.950;2023-06-26T10:10:48;23.00;1.00
21331;DHT22;10824;51.632;4.950;2023-06-26T10:13:22;23.10;1.00
21331;DHT22;10824;51.632;4.950;2023-06-26T10:15:51;23.10;1.00
21331;DHT22;10824;51.632;4.950;2023-06-26T10:18:24;22.80;1.00
21331;DHT22;10824;51.632;4.950;2023-06-26T10:20:54;23.10;1.00
21331;DHT22;10824;51.632;4.950;2023-06-26T10:23:23;23.30;1.00
21331;DHT22;10824;51.632;4.950;2023-06-26T10:25:55;23.50;1.00
21331;DHT22;10824;51.632;4.950;2023-06-26T10:28:28;23.80;1.00
21331;DHT22;10824;51.632;4.950;2023-06-26T10:30:58;23.80;1.00
21331;DHT22;10824;51.632;4.950;2023-06-26T10:33:27;23.60;1.00
21331;DHT22;10824;51.632;4.950;2023-06-26T10:36:15;23.50;1.00
21331;DHT22;10824;51.632;4.950;2023-06-26T10:38:57;23.50;1.00
21331;DHT22;10824;51.632;4.950;2023-06-26T10:41:25;23.30;1.00
21331;DHT22;10824;51.632;4.950;2023-06-26T10:46:33;23.70;1.00
21331;DHT22;10824;51.632;4.950;2023-06-26T10:49:02;23.70;1.00
21331;DHT22;10824;51.632;4.950;2023-06-26T10:51:30;23.80;1.00
21331;DHT22;10824;51.632;4.950;2023-06-26T10:53:58;24.30;1.00
21331;DHT22;10824;51.632;4.950;2023-06-26T10:59:20;23.60;1.00
21331;DHT22;10824;51.632;4.950;2023-06-26T11:02:01;24.00;1.00
21331;DHT22;10824;51.632;4.950;2023-06-26T11:07:19;23.60;1.00
21331;DHT22;10824;51.632;4.950;2023-06-26T11:10:16;23.60;1.00
21331;DHT22;10824;51.632;4.950;2023-06-26T11:12:44;23.80;1.00
21331;DHT22;10824;51.632;4.950;2023-06-26T11:15:20;23.70;1.00
21331;DHT22;10824;51.632;4.950;2023-06-26T11:17:47;23.10;1.00
21331;DHT22;10824;51.632;4.950;2023-06-26T11:20:15;23.70;1.00
21331;DHT22;10824;51.632;4.950;2023-06-26T11:22:43;23.50;1.00
21331;DHT22;10824;51.632;4.950;2023-06-26T11:25:11;24.00;1.00
21331;DHT22;10824;51.632;4.950;2023-06-26T11:30:07;24.00;1.00
21331;DHT22;10824;51.632;4.950;2023-06-26T11:32:38;24.10;1.00
21331;DHT22;10824;51.632;4.950;2023-06-26T11:35:06;24.30;1.00
21331;DHT22;10824;51.632;4.950;2023-06-26T11:37:33;23.50;1.00
21331;DHT22;10824;51.632;4.950;2023-06-26T11:40:16;23.90;1.00
21331;DHT22;10824;51.632;4.950;2023-06-26T11:42:45;24.30;1.00
21331;DHT22;10824;51.632;4.950;2023-06-26T11:45:12;24.20;1.00
21331;DHT22;10824;51.632;4.950;2023-06-26T11:47:39;24.40;1.00
21331;DHT22;10824;51.632;4.950;2023-06-26T11:50:06;24.40;1.00
21331;DHT22;10824;51.632;4.950;2023-06-26T11:52:41;24.40;1.00
21331;DHT22;10824;51.632;4.950;2023-06-26T11:55:09;24.10;1.00
21331;DHT22;10824;51.632;4.950;2023-06-26T11:57:37;24.10;1.00
21331;DHT22;10824;51.632;4.950;2023-06-26T12:00:15;24.30;1.00
21331;DHT22;10824;51.632;4.950;2023-06-26T12:02:45;24.70;1.00
21331;DHT22;10824;51.632;4.950;2023-06-26T12:05:14;24.90;1.00
21331;DHT22;10824;51.632;4.950;2023-06-26T12:07:46;24.90;1.00
21331;DHT22;10824;51.632;4.950;2023-06-26T12:10:16;24.90;1.00
21331;DHT22;10824;51.632;4.950;2023-06-26T12:12:45;24.30;1.00
21331;DHT22;10824;51.632;4.950;2023-06-26T12:15:15;24.10;1.00
21331;DHT22;10824;51.632;4.950;2023-06-26T12:17:42;24.20;1.00
21331;DHT22;10824;51.632;4.950;2023-06-26T12:20:20;24.70;1.00
21331;DHT22;10824;51.632;4.950;2023-06-26T12:22:48;25.00;1.00
21331;DHT22;10824;51.632;4.950;2023-06-26T12:25:22;25.40;1.00
21331;DHT22;10824;51.632;4.950;2023-06-26T12:27:50;25.50;1.00
21331;DHT22;10824;51.632;4.950;2023-06-26T12:30:18;25.60;1.00
21331;DHT22;10824;51.632;4.950;2023-06-26T12:32:45;25.80;1.00
21331;DHT22;10824;51.632;4.950;2023-06-26T12:35:15;25.40;1.00
21331;DHT22;10824;51.632;4.950;2023-06-26T12:37:43;25.40;1.00
21331;DHT22;10824;51.632;4.950;2023-06-26T12:40:17;25.30;1.00
21331;DHT22;10824;51.632;4.950;2023-06-26T12:42:55;25.10;1.00
21331;DHT22;10824;51.632;4.950;2023-06-26T12:45:22;24.60;1.00
21331;DHT22;10824;51.632;4.950;2023-06-26T12:48:12;24.80;1.00
21331;DHT22;10824;51.632;4.950;2023-06-26T12:50:46;25.10;1.00
21331;DHT22;10824;51.632;4.950;2023-06-26T12:53:13;24.90;1.00
21331;DHT22;10824;51.632;4.950;2023-06-26T12:55:42;24.90;1.00
21331;DHT22;10824;51.632;4.950;2023-06-26T12:58:10;24.90;1.00
21331;DHT22;10824;51.632;4.950;2023-06-26T13:00:37;24.70;1.00
21331;DHT22;10824;51.632;4.950;2023-06-26T13:03:05;25.10;1.00
21331;DHT22;10824;51.632;4.950;2023-06-26T13:05:36;24.90;1.00
21331;DHT22;10824;51.632;4.950;2023-06-26T13:08:03;24.70;1.00
21331;DHT22;10824;51.632;4.950;2023-06-26T13:10:31;24.50;1.00
21331;DHT22;10824;51.632;4.950;2023-06-26T13:12:58;24.50;1.00
21331;DHT22;10824;51.632;4.950;2023-06-26T13:15:25;24.80;1.00
21331;DHT22;10824;51.632;4.950;2023-06-26T13:17:53;25.20;1.00
21331;DHT22;10824;51.632;4.950;2023-06-26T13:20:21;25.60;1.00
21331;DHT22;10824;51.632;4.950;2023-06-26T13:22:48;25.60;1.00
21331;DHT22;10824;51.632;4.950;2023-06-26T13:25:15;25.40;1.00
21331;DHT22;10824;51.632;4.950;2023-06-26T13:27:43;25.00;1.00
21331;DHT22;10824;51.632;4.950;2023-06-26T13:30:11;25.10;1.00
21331;DHT22;10824;51.632;4.950;2023-06-26T13:32:38;25.20;1.00
21331;DHT22;10824;51.632;4.950;2023-06-26T13:35:06;25.00;1.00
21331;DHT22;10824;51.632;4.950;2023-06-26T13:37:33;25.10;1.00
21331;DHT22;10824;51.632;4.950;2023-06-26T13:40:03;25.00;1.00
21331;DHT22;10824;51.632;4.950;2023-06-26T13:42:30;25.20;1.00
21331;DHT22;10824;51.632;4.950;2023-06-26T13:44:58;25.40;1.00
21331;DHT22;10824;51.632;4.950;2023-06-26T13:47:31;25.30;1.00
21331;DHT22;10824;51.632;4.950;2023-06-26T13:50:04;25.00;1.00
21331;DHT22;10824;51.632;4.950;2023-06-26T13:52:34;25.00;1.00
21331;DHT22;10824;51.632;4.950;2023-06-26T13:55:01;24.70;1.00
21331;DHT22;10824;51.632;4.950;2023-06-26T13:57:32;24.70;1.00
21331;DHT22;10824;51.632;4.950;2023-06-26T14:00:00;25.00;1.00
21331;DHT22;10824;51.632;4.950;2023-06-26T14:02:38;25.20;1.00
21331;DHT22;10824;51.632;4.950;2023-06-26T14:05:06;25.50;1.00
21331;DHT22;10824;51.632;4.950;2023-06-26T14:07:34;25.70;1.00
21331;DHT22;10824;51.632;4.950;2023-06-26T14:10:01;25.80;1.00
21331;DHT22;10824;51.632;4.950;2023-06-26T14:12:29;25.80;1.00
21331;DHT22;10824;51.632;4.950;2023-06-26T14:14:59;26.10;1.00
21331;DHT22;10824;51.632;4.950;2023-06-26T14:17:26;25.60;1.00
21331;DHT22;10824;51.632;4.950;2023-06-26T14:19:57;25.40;1.00
21331;DHT22;10824;51.632;4.950;2023-06-26T14:22:25;25.40;1.00
21331;DHT22;10824;51.632;4.950;2023-06-26T14:24:53;25.50;1.00
21331;DHT22;10824;51.632;4.950;2023-06-26T14:27:21;25.30;1.00
21331;DHT22;10824;51.632;4.950;2023-06-26T14:29:48;25.30;1.00
21331;DHT22;10824;51.632;4.950;2023-06-26T14:32:15;24.90;99.90
21331;DHT22;10824;51.632;4.950;2023-06-26T14:34:42;25.10;1.00
21331;DHT22;10824;51.632;4.950;2023-06-26T14:37:10;25.10;1.00
21331;DHT22;10824;51.632;4.950;2023-06-26T14:39:37;25.20;1.00
21331;DHT22;10824;51.632;4.950;2023-06-26T14:42:06;25.30;1.00
21331;DHT22;10824;51.632;4.950;2023-06-26T14:44:34;24.80;1.00
21331;DHT22;10824;51.632;4.950;2023-06-26T14:47:02;25.20;1.00
21331;DHT22;10824;51.632;4.950;2023-06-26T14:49:30;25.40;1.00
21331;DHT22;10824;51.632;4.950;2023-06-26T14:51:57;25.20;1.00
21331;DHT22;10824;51.632;4.950;2023-06-26T14:54:24;25.60;1.00
21331;DHT22;10824;51.632;4.950;2023-06-26T14:56:51;25.60;1.00
21331;DHT22;10824;51.632;4.950;2023-06-26T14:59:18;25.70;1.00
21331;DHT22;10824;51.632;4.950;2023-06-26T15:01:45;25.90;1.00
21331;DHT22;10824;51.632;4.950;2023-06-26T15:04:14;26.10;1.00
21331;DHT22;10824;51.632;4.950;2023-06-26T15:06:42;26.30;1.00
21331;DHT22;10824;51.632;4.950;2023-06-26T15:09:09;26.20;1.00
21331;DHT22;10824;51.632;4.950;2023-06-26T15:11:37;26.50;1.00
21331;DHT22;10824;51.632;4.950;2023-06-26T15:14:05;26.40;1.00
21331;DHT22;10824;51.632;4.950;2023-06-26T15:16:32;25.80;1.00
21331;DHT22;10824;51.632;4.950;2023-06-26T15:19:03;25.80;1.00
21331;DHT22;10824;51.632;4.950;2023-06-26T15:22:22;25.90;1.00
21331;DHT22;10824;51.632;4.950;2023-06-26T15:24:53;26.10;1.00
21331;DHT22;10824;51.632;4.950;2023-06-26T15:27:21;25.40;1.40
21331;DHT22;10824;51.632;4.950;2023-06-26T15:29:51;25.40;1.00
21331;DHT22;10824;51.632;4.950;2023-06-26T15:32:18;25.70;99.90
21331;DHT22;10824;51.632;4.950;2023-06-26T15:34:46;25.60;1.00
21331;DHT22;10824;51.632;4.950;2023-06-26T15:37:14;25.30;1.00
21331;DHT22;10824;51.632;4.950;2023-06-26T15:39:44;25.60;1.00
21331;DHT22;10824;51.632;4.950;2023-06-26T15:42:12;25.50;1.00
21331;DHT22;10824;51.632;4.950;2023-06-26T15:44:39;24.60;1.00
21331;DHT22;10824;51.632;4.950;2023-06-26T15:47:06;25.10;1.00
21331;DHT22;10824;51.632;4.950;2023-06-26T15:49:33;25.50;1.00
21331;DHT22;10824;51.632;4.950;2023-06-26T15:52:00;25.70;1.00
21331;DHT22;10824;51.632;4.950;2023-06-26T15:54:27;25.80;1.00
21331;DHT22;10824;51.632;4.950;2023-06-26T15:56:54;25.60;1.00
21331;DHT22;10824;51.632;4.950;2023-06-26T15:59:22;25.90;1.00
21331;DHT22;10824;51.632;4.950;2023-06-26T16:01:49;25.60;1.00
21331;DHT22;10824;51.632;4.950;2023-06-26T16:04:18;26.00;1.00
21331;DHT22;10824;51.632;4.950;2023-06-26T16:06:45;25.70;1.00
21331;DHT22;10824;51.632;4.950;2023-06-26T16:09:13;25.40;99.90
21331;DHT22;10824;51.632;4.950;2023-06-26T16:11:41;25.40;1.00